IDLEJ LIRU-LIRU

Flight info

Callsign IDLEJ
Flight time 0h 20m
Altitude 2000
Route NO FPL
Aircraft VL3/L-SDE3/S

Departure

Time 2026-05-05 11:58
Airport Rome Urbe Airport (LIRU)

Arrival

Time 2026-05-05 12:18
Airport Rome Urbe Airport (LIRU)
Time Latitude Longitude Altitude Speed Heading
2026-05-05 11:50 41.95295 12.50411 57 ft 0 kts 256°
2026-05-05 11:54 41.95293 12.50403 57 ft 4 kts 252°
2026-05-05 11:54 41.95306 12.50358 54 ft 7 kts 327°
2026-05-05 11:55 41.95363 12.50316 57 ft 12 kts 333°
2026-05-05 11:55 41.95456 12.50327 55 ft 16 kts 11°
2026-05-05 11:55 41.95570 12.50364 56 ft 18 kts 16°
2026-05-05 11:55 41.95685 12.50367 55 ft 14 kts 332°
2026-05-05 11:56 41.95758 12.50266 56 ft 16 kts 287°
2026-05-05 11:56 41.95756 12.50139 57 ft 12 kts 245°
2026-05-05 11:56 41.95734 12.50097 57 ft 0 kts 229°
2026-05-05 11:57 41.95694 12.50061 56 ft 15 kts 206°
2026-05-05 11:57 41.95606 12.50049 58 ft 17 kts 160°
2026-05-05 11:57 41.95176 12.50230 179 ft 86 kts 166°
2026-05-05 11:58 41.94595 12.50554 541 ft 89 kts 160°
2026-05-05 11:58 41.94022 12.50906 922 ft 93 kts 152°
2026-05-05 11:58 41.93540 12.51520 1199 ft 99 kts 135°
2026-05-05 11:58 41.93091 12.52262 1383 ft 104 kts 131°
2026-05-05 11:59 41.92591 12.52966 1570 ft 104 kts 139°
2026-05-05 11:59 41.92087 12.53647 1677 ft 104 kts 138°
2026-05-05 11:59 41.91540 12.54228 1630 ft 88 kts 165°
2026-05-05 11:59 41.91041 12.54002 1363 ft 73 kts 211°
2026-05-05 12:00 41.90541 12.53760 990 ft 77 kts 187°
2026-05-05 12:00 41.90099 12.53987 845 ft 69 kts 133°
2026-05-05 12:00 41.89989 12.54540 917 ft 60 kts 62°
2026-05-05 12:00 41.90229 12.55082 1030 ft 73 kts 55°
2026-05-05 12:01 41.90507 12.55697 1021 ft 85 kts 69°
2026-05-05 12:01 41.90954 12.55810 898 ft 74 kts 301°
2026-05-05 12:01 41.91177 12.55248 855 ft 56 kts 287°
2026-05-05 12:01 41.91417 12.54642 1052 ft 87 kts 291°
2026-05-05 12:02 41.91450 12.54182 1441 ft 80 kts 243°
2026-05-05 12:02 41.90929 12.53742 1610 ft 101 kts 199°
2026-05-05 12:02 41.90246 12.53481 1701 ft 99 kts 205°
2026-05-05 12:02 41.89752 12.52863 1597 ft 102 kts 243°
2026-05-05 12:03 41.89342 12.51780 1661 ft 94 kts 239°
2026-05-05 12:03 41.89089 12.51283 1672 ft 96 kts 235°
2026-05-05 12:03 41.88801 12.50521 1326 ft 91 kts 254°
2026-05-05 12:03 41.88853 12.49766 1058 ft 75 kts 281°
2026-05-05 12:04 41.89001 12.49020 419 ft 76 kts 241°
2026-05-05 12:04 41.88660 12.48680 484 ft 59 kts 204°
2026-05-05 12:04 41.88218 12.48624 757 ft 65 kts 177°
2026-05-05 12:04 41.87762 12.48758 1006 ft 81 kts 149°
2026-05-05 12:05 41.87611 12.49390 1045 ft 78 kts 60°
2026-05-05 12:05 41.88085 12.49701 1052 ft 80 kts 40°
2026-05-05 12:05 41.88681 12.49739 852 ft 97 kts 325°
2026-05-05 12:05 41.89073 12.49037 360 ft 84 kts 281°
2026-05-05 12:06 41.89272 12.48242 689 ft 93 kts 288°
2026-05-05 12:06 41.89597 12.47443 872 ft 104 kts 304°
2026-05-05 12:06 41.90095 12.46687 923 ft 112 kts 314°
2026-05-05 12:06 41.90643 12.45970 1078 ft 104 kts 309°
2026-05-05 12:07 41.91118 12.45277 1164 ft 84 kts 307°
2026-05-05 12:07 41.91504 12.44891 1149 ft 68 kts 338°
2026-05-05 12:07 41.91996 12.44788 1134 ft 78 kts 351°
2026-05-05 12:07 41.92459 12.44465 1258 ft 77 kts 322°
2026-05-05 12:08 41.92773 12.43864 1177 ft 77 kts 267°
2026-05-05 12:08 41.92517 12.43332 992 ft 65 kts 225°
2026-05-05 12:08 41.92169 12.42927 1037 ft 60 kts 209°
2026-05-05 12:08 41.91816 12.43168 1134 ft 85 kts 124°
2026-05-05 12:09 41.91914 12.43949 1290 ft 100 kts 49°
2026-05-05 12:09 41.92489 12.44559 1442 ft 108 kts 32°
2026-05-05 12:09 41.93125 12.45087 1467 ft 112 kts 45°
2026-05-05 12:09 41.93467 12.46016 1278 ft 109 kts 73°
2026-05-05 12:10 41.93674 12.46985 1138 ft 106 kts 61°
2026-05-05 12:10 41.94101 12.47759 1107 ft 106 kts 56°
2026-05-05 12:10 41.94433 12.48612 1168 ft 99 kts 63°
2026-05-05 12:10 41.94716 12.49442 1271 ft 98 kts 69°
2026-05-05 12:11 41.94970 12.50301 1396 ft 103 kts 68°
2026-05-05 12:11 41.95286 12.51208 1428 ft 108 kts 63°
2026-05-05 12:11 41.95688 12.51842 1405 ft 111 kts 31°
2026-05-05 12:12 41.96032 12.51958 1350 ft 111 kts 356°
2026-05-05 12:12 41.96716 12.51579 1122 ft 101 kts 334°
2026-05-05 12:13 41.97341 12.51162 952 ft 98 kts 321°
2026-05-05 12:13 41.97455 12.50413 694 ft 82 kts 238°
2026-05-05 12:13 41.97158 12.49809 676 ft 73 kts 214°
2026-05-05 12:13 41.96679 12.49576 507 ft 80 kts 176°
2026-05-05 12:14 41.96177 12.49809 383 ft 69 kts 165°
2026-05-05 12:14 41.95717 12.49997 105 ft 70 kts 159°
2026-05-05 12:14 41.95275 12.50317 370 ft 85 kts 114°
2026-05-05 12:14 41.95617 12.50873 454 ft 81 kts 360°
2026-05-05 12:15 41.96094 12.50731 363 ft 61 kts 336°
2026-05-05 12:15 41.96393 12.50339 322 ft 66 kts 273°
2026-05-05 12:15 41.96138 12.49903 236 ft 68 kts 209°
2026-05-05 12:15 41.95728 12.50011 87 ft 62 kts 168°
2026-05-05 12:16 41.95352 12.50187 160 ft 67 kts 171°
2026-05-05 12:16 41.95301 12.49751 357 ft 89 kts 330°
2026-05-05 12:16 41.95915 12.49452 537 ft 103 kts 338°
2026-05-05 12:17 41.96334 12.49228 828 ft 91 kts 333°
2026-05-05 12:17 41.96812 12.48684 1157 ft 96 kts 309°
2026-05-05 12:17 41.97443 12.48507 1098 ft 107 kts 33°
2026-05-05 12:17 41.97371 12.49285 947 ft 94 kts 156°
2026-05-05 12:18 41.96727 12.49529 660 ft 99 kts 165°
2026-05-05 12:18 41.96067 12.49870 260 ft 97 kts 163°
2026-05-05 12:18 41.95529 12.50085 62 ft 68 kts 161°
2026-05-05 12:18 41.95270 12.50209 56 ft 15 kts 162°
2026-05-05 12:19 41.95281 12.50269 59 ft 8 kts 24°
2026-05-05 12:19 41.95291 12.50275 59 ft 0 kts 22°
2026-05-05 12:19 41.95293 12.50276 59 ft 1 kts 21°
2026-05-05 12:19 41.95316 12.50288 58 ft 7 kts 24°